Terminal Aerodrome Forecast
Issued by NWS

Home | Current Version | Previous Version | Text Only | Print | Product List | Glossary On
Versions: 1 2 3 4 5 6 7 8 9 10 11 12 13
000
FTUS45 KABQ 041741
TAFAEG
TAF
KAEG 041741Z 0418/0518 17012KT P6SM VCSH SCT060 BKN100
      TEMPO 0418/0419 VRB06KT
     FM050000 15010KT P6SM VCSH SCT050 BKN090
     FM050700 VRB06KT P6SM SCT040 BKN090
      TEMPO 0511/0515 BKN035 BKN080
     FM051600 20007KT P6SM SCT050 BKN100=

USA.gov is the U.S. government's official web portal to all federal, state and local government web resources and services.